createdAt,value
2022-12-18T00:00:25.645Z,-11.70
2022-12-18T00:17:48.825Z,-11.80
2022-12-18T00:40:15.054Z,-11.50
2022-12-18T00:45:30.419Z,-12.70
2022-12-18T00:48:00.656Z,-11.80
2022-12-18T01:05:25.120Z,-12.00
2022-12-18T01:15:21.504Z,-11.90
2022-12-18T01:22:49.524Z,-11.80
2022-12-18T01:30:16.317Z,-13.00
2022-12-18T01:40:13.844Z,-12.10
2022-12-18T01:45:28.602Z,-11.50
2022-12-18T01:47:59.818Z,-11.40
2022-12-18T01:50:34.127Z,-11.30
2022-12-18T01:53:09.079Z,-11.30
2022-12-18T01:55:47.374Z,-11.30
2022-12-18T02:05:50.014Z,-11.40
2022-12-18T02:08:23.725Z,-11.30
2022-12-18T02:11:04.655Z,-11.20
2022-12-18T02:13:44.281Z,-11.20
2022-12-18T02:16:24.328Z,-11.10
2022-12-18T02:18:59.847Z,-11.10
2022-12-18T02:21:45.759Z,-11.10
2022-12-18T02:24:30.057Z,-11.00
2022-12-18T02:27:03.619Z,-11.20
2022-12-18T02:29:38.020Z,-11.40
2022-12-18T02:32:13.300Z,-11.00
2022-12-18T02:34:43.419Z,-11.10
2022-12-18T02:37:15.279Z,-11.00
2022-12-18T02:39:46.284Z,-11.00
2022-12-18T02:42:16.895Z,-11.00
2022-12-18T02:47:17.295Z,-11.10
2022-12-18T02:49:57.287Z,-11.10
2022-12-18T02:52:35.635Z,-11.10
2022-12-18T02:55:19.887Z,-11.10
2022-12-18T02:57:55.654Z,-11.00
2022-12-18T03:00:29.789Z,-10.90
2022-12-18T03:03:05.519Z,-10.80
2022-12-18T03:05:40.219Z,-10.90
2022-12-18T03:08:14.426Z,-10.90
2022-12-18T03:10:52.098Z,-10.80
2022-12-18T03:13:33.668Z,-10.80
2022-12-18T03:16:03.911Z,-10.90
2022-12-18T03:18:39.382Z,-10.90
2022-12-18T03:21:10.506Z,-9.60
2022-12-18T03:23:43.966Z,-11.10
2022-12-18T03:26:16.514Z,-9.50
2022-12-18T03:28:53.799Z,-11.10
2022-12-18T03:31:25.415Z,-11.20
2022-12-18T03:33:57.229Z,-11.20
2022-12-18T03:36:26.409Z,-11.40
2022-12-18T03:41:33.458Z,-9.90
2022-12-18T03:44:13.041Z,-11.70
2022-12-18T03:46:48.409Z,-11.80
2022-12-18T03:49:26.274Z,-12.00
2022-12-18T03:52:03.980Z,-12.10
2022-12-18T03:54:33.908Z,-12.10
2022-12-18T03:57:08.118Z,-12.10
2022-12-18T03:59:40.272Z,-12.20
2022-12-18T04:02:10.828Z,-12.30
2022-12-18T04:04:41.326Z,-12.30
2022-12-18T04:07:10.903Z,-12.30
2022-12-18T04:12:11.702Z,-12.30
2022-12-18T04:14:41.923Z,-12.30
2022-12-18T04:32:08.264Z,-12.40
2022-12-18T04:49:31.322Z,-12.80
2022-12-18T05:06:54.712Z,-13.00
2022-12-18T05:09:23.844Z,-13.00
2022-12-18T05:24:18.577Z,-13.50
2022-12-18T05:41:43.822Z,-13.20
2022-12-18T05:59:08.406Z,-13.40
2022-12-18T06:11:39.217Z,-13.50
2022-12-18T06:14:09.909Z,-12.00
2022-12-18T06:19:08.454Z,-13.60
2022-12-18T06:31:35.028Z,-13.80
2022-12-18T06:34:06.673Z,-13.80
2022-12-18T06:49:01.634Z,-13.70
2022-12-18T07:03:55.926Z,-13.70
2022-12-18T07:06:28.376Z,-13.70
2022-12-18T07:08:57.801Z,-13.70
2022-12-18T07:11:27.693Z,-13.60
2022-12-18T07:21:26.999Z,-13.60
2022-12-18T07:28:58.593Z,-13.40
2022-12-18T07:31:29.027Z,-13.30
2022-12-18T07:36:28.181Z,-13.20
2022-12-18T07:53:52.713Z,-13.20
2022-12-18T08:08:56.416Z,-13.20
2022-12-18T08:11:27.889Z,-13.50
2022-12-18T08:21:27.697Z,-13.30
2022-12-18T08:24:02.720Z,-13.20
2022-12-18T08:26:33.600Z,-13.20
2022-12-18T08:31:34.249Z,-13.10
2022-12-18T08:36:31.711Z,-13.50
2022-12-18T08:39:01.654Z,-13.20
2022-12-18T08:46:46.684Z,-13.30
2022-12-18T08:54:15.935Z,-13.10
2022-12-18T09:01:49.508Z,-12.80
2022-12-18T09:09:17.580Z,-12.50
2022-12-18T09:24:18.955Z,-12.00
2022-12-18T09:34:16.734Z,-11.60
2022-12-18T09:41:54.830Z,-11.30
2022-12-18T09:44:27.397Z,-11.20
2022-12-18T09:47:07.225Z,-11.10
2022-12-18T09:49:41.192Z,-11.00
2022-12-18T09:52:17.336Z,-11.20
2022-12-18T09:54:52.871Z,-10.90
2022-12-18T09:57:25.789Z,-10.80
2022-12-18T09:59:59.520Z,-10.60
2022-12-18T10:02:29.652Z,-10.60
2022-12-18T10:05:13.680Z,-11.40
2022-12-18T10:08:01.891Z,-10.40
2022-12-18T10:10:42.077Z,-10.40
2022-12-18T10:13:23.856Z,-10.20
2022-12-18T10:16:08.860Z,-10.40
2022-12-18T10:19:01.543Z,-9.10
2022-12-18T10:21:36.340Z,-9.80
2022-12-18T10:24:17.993Z,-9.70
2022-12-18T10:26:49.209Z,-9.50
2022-12-18T10:29:19.526Z,-9.50
2022-12-18T10:36:46.352Z,-10.00
2022-12-18T10:39:21.418Z,-9.00
2022-12-18T10:41:51.400Z,-8.80
2022-12-18T10:44:23.699Z,-8.80
2022-12-18T10:46:57.221Z,-8.70
2022-12-18T10:49:28.780Z,-8.60
2022-12-18T10:52:10.169Z,-8.40
2022-12-18T10:57:31.827Z,-9.00
2022-12-18T11:00:22.048Z,-8.30
2022-12-18T11:05:32.251Z,-7.80
2022-12-18T11:08:02.510Z,-7.60
2022-12-18T11:10:34.857Z,-7.70
2022-12-18T11:13:20.435Z,-7.40
2022-12-18T11:18:22.519Z,-6.70
2022-12-18T11:20:58.742Z,-7.10
2022-12-18T11:23:28.954Z,-6.20
2022-12-18T11:26:00.652Z,-6.30
2022-12-18T11:28:50.120Z,-5.30
2022-12-18T11:31:26.737Z,-5.90
2022-12-18T11:34:28.755Z,-5.10
2022-12-18T11:39:37.709Z,-5.80
2022-12-18T11:42:15.369Z,-5.70
2022-12-18T11:44:51.179Z,-5.40
2022-12-18T11:47:33.151Z,-6.10
2022-12-18T11:50:05.317Z,-5.30
2022-12-18T11:52:39.755Z,-5.20
2022-12-18T11:55:16.305Z,-5.90
2022-12-18T11:57:57.070Z,-5.20
2022-12-18T12:00:27.487Z,-5.10
2022-12-18T12:03:44.640Z,-5.20
2022-12-18T12:06:22.007Z,-5.00
2022-12-18T12:09:05.880Z,-5.20
2022-12-18T12:11:46.066Z,-4.90
2022-12-18T12:14:45.374Z,-5.40
2022-12-18T12:17:26.084Z,-5.00
2022-12-18T12:20:04.034Z,-5.40
2022-12-18T12:22:41.988Z,-4.90
2022-12-18T12:25:30.054Z,-3.90
2022-12-18T12:28:15.576Z,-4.80
2022-12-18T12:30:58.625Z,-3.00
2022-12-18T12:33:42.627Z,-4.70
2022-12-18T12:36:22.761Z,-4.70
2022-12-18T12:38:57.704Z,-4.60
2022-12-18T12:41:48.337Z,-4.70
2022-12-18T12:44:23.424Z,-4.70
2022-12-18T12:46:54.876Z,-5.20
2022-12-18T12:49:29.128Z,-4.80
2022-12-18T12:52:07.588Z,-4.80
2022-12-18T12:54:37.734Z,-4.90
2022-12-18T12:57:15.156Z,-4.80
2022-12-18T12:59:53.496Z,-4.80
2022-12-18T13:02:31.309Z,-4.70
2022-12-18T13:05:08.983Z,-4.70
2022-12-18T13:07:43.655Z,-4.70
2022-12-18T13:10:33.666Z,-4.60
2022-12-18T13:13:04.884Z,-4.50
2022-12-18T13:15:40.273Z,-4.50
2022-12-18T13:18:21.788Z,-4.50
2022-12-18T13:20:59.770Z,-4.50
2022-12-18T13:23:41.669Z,-4.40
2022-12-18T13:26:35.457Z,-4.20
2022-12-18T13:29:10.737Z,-4.10
2022-12-18T13:32:22.441Z,-4.70
2022-12-18T13:35:42.984Z,-5.00
2022-12-18T13:38:24.646Z,-4.30
2022-12-18T13:40:59.118Z,-4.30
2022-12-18T13:43:44.035Z,-2.60
2022-12-18T13:46:27.049Z,-4.40
2022-12-18T13:49:01.935Z,-4.70
2022-12-18T13:51:34.290Z,-4.50
2022-12-18T13:54:04.931Z,-4.20
2022-12-18T13:56:35.910Z,-4.50
2022-12-18T13:59:24.535Z,-4.00
2022-12-18T14:01:57.889Z,-4.50
2022-12-18T14:04:30.091Z,-3.80
2022-12-18T14:07:04.391Z,-3.90
2022-12-18T14:09:37.335Z,-4.20
2022-12-18T14:12:26.288Z,-4.70
2022-12-18T14:14:56.035Z,-3.90
2022-12-18T14:17:26.336Z,-4.60
2022-12-18T14:19:55.175Z,-4.00
2022-12-18T14:22:28.925Z,-4.10
2022-12-18T14:25:17.915Z,-4.10
2022-12-18T14:27:49.692Z,-4.20
2022-12-18T14:30:30.539Z,-4.20
2022-12-18T14:33:05.588Z,-3.30
2022-12-18T14:35:35.667Z,-4.20
2022-12-18T14:38:25.401Z,-4.20
2022-12-18T14:41:01.931Z,-4.30
2022-12-18T14:43:34.345Z,-4.30
2022-12-18T14:46:04.213Z,-4.30
2022-12-18T14:48:41.054Z,-4.40
2022-12-18T14:51:18.002Z,-4.60
2022-12-18T14:53:53.981Z,-4.40
2022-12-18T14:56:26.035Z,-4.50
2022-12-18T14:58:58.228Z,-4.50
2022-12-18T15:01:30.691Z,-4.60
2022-12-18T15:04:02.806Z,-4.40
2022-12-18T15:06:35.840Z,-4.80
2022-12-18T15:09:08.622Z,-4.50
2022-12-18T15:11:48.444Z,-3.30
2022-12-18T15:14:40.570Z,-4.40
2022-12-18T15:17:20.106Z,-5.20
2022-12-18T15:19:52.864Z,-4.70
2022-12-18T15:22:28.560Z,-4.90
2022-12-18T15:24:58.489Z,-4.80
2022-12-18T15:27:36.924Z,-5.30
2022-12-18T15:30:22.068Z,-4.90
2022-12-18T15:32:51.423Z,-5.50
2022-12-18T15:35:24.506Z,-4.90
2022-12-18T15:37:54.298Z,-4.90
2022-12-18T15:40:25.844Z,-4.90
2022-12-18T15:43:28.538Z,-4.90
2022-12-18T15:45:57.307Z,-5.70
2022-12-18T15:48:25.828Z,-5.30
2022-12-18T15:50:59.435Z,-5.00
2022-12-18T15:53:33.183Z,-4.60
2022-12-18T15:58:48.838Z,-4.90
2022-12-18T16:01:18.199Z,-4.70
2022-12-18T16:03:46.879Z,-4.90
2022-12-18T16:06:16.775Z,-5.50
2022-12-18T16:08:45.488Z,-5.10
2022-12-18T16:11:39.088Z,-4.90
2022-12-18T16:14:17.775Z,-4.00
2022-12-18T16:16:46.981Z,-5.70
2022-12-18T16:19:15.659Z,-5.20
2022-12-18T16:21:45.984Z,-4.90
2022-12-18T16:24:18.398Z,-4.90
2022-12-18T16:26:47.163Z,-5.30
2022-12-18T16:29:15.950Z,-5.60
2022-12-18T16:31:44.669Z,-4.90
2022-12-18T16:34:23.205Z,-5.00
2022-12-18T16:37:04.852Z,-5.20
2022-12-18T16:39:35.477Z,-4.90
2022-12-18T16:42:06.296Z,-4.80
2022-12-18T16:44:35.112Z,-5.00
2022-12-18T16:47:04.784Z,-5.70
2022-12-18T16:49:33.478Z,-5.50
2022-12-18T16:52:04.279Z,-4.90
2022-12-18T16:57:02.636Z,-2.90
2022-12-18T16:59:31.475Z,-4.50
2022-12-18T17:02:00.744Z,-4.80
2022-12-18T17:04:29.331Z,-5.30
2022-12-18T17:06:57.854Z,-4.40
2022-12-18T17:09:27.926Z,-4.70
2022-12-18T17:11:57.227Z,-2.50
2022-12-18T17:14:27.129Z,-4.50
2022-12-18T17:17:20.219Z,-4.90
2022-12-18T17:19:45.786Z,-4.90
2022-12-18T17:22:14.261Z,-4.90
2022-12-18T17:24:44.158Z,-5.50
2022-12-18T17:27:12.713Z,-4.90
2022-12-18T17:29:47.445Z,-5.20
2022-12-18T17:32:17.278Z,-5.50
2022-12-18T17:34:45.838Z,-4.80
2022-12-18T17:37:14.559Z,-4.60
2022-12-18T17:39:44.679Z,-4.70
2022-12-18T17:42:14.835Z,-4.70
2022-12-18T17:44:44.225Z,-5.60
2022-12-18T17:47:13.169Z,-5.20
2022-12-18T17:52:11.777Z,-3.90
2022-12-18T17:54:42.423Z,-4.70
2022-12-18T17:57:12.612Z,-4.00
2022-12-18T17:59:41.084Z,-4.70
2022-12-18T18:02:13.027Z,-4.60
2022-12-18T18:07:11.335Z,-4.90
2022-12-18T18:09:39.894Z,-4.80
2022-12-18T18:14:57.039Z,-3.00
2022-12-18T18:17:26.197Z,-2.40
2022-12-18T18:22:23.497Z,-4.20
2022-12-18T18:27:21.714Z,-4.60
2022-12-18T18:29:50.495Z,-4.90
2022-12-18T18:32:20.458Z,-4.60
2022-12-18T18:37:18.090Z,-4.70
2022-12-18T18:39:46.555Z,-5.10
2022-12-18T18:42:15.239Z,-4.10
2022-12-18T18:44:48.743Z,-4.50
2022-12-18T18:49:48.197Z,-4.70
2022-12-18T18:52:16.724Z,-4.50
2022-12-18T18:55:11.183Z,-4.90
2022-12-18T18:57:34.896Z,-4.80
2022-12-18T19:00:03.623Z,-4.60
2022-12-18T19:02:33.578Z,-4.80
2022-12-18T19:05:02.223Z,-5.10
2022-12-18T19:07:31.385Z,-4.60
2022-12-18T19:10:07.246Z,-4.60
2022-12-18T19:12:53.883Z,-2.30
2022-12-18T19:15:22.746Z,-4.50
2022-12-18T19:17:53.167Z,-4.20
2022-12-18T19:20:21.755Z,-4.80
2022-12-18T19:25:38.595Z,-4.50
2022-12-18T19:28:21.232Z,-5.30
2022-12-18T19:30:55.340Z,-5.30
2022-12-18T19:33:45.879Z,-4.60
2022-12-18T19:36:20.302Z,-4.30
2022-12-18T19:38:49.633Z,-4.40
2022-12-18T19:41:19.735Z,-2.50
2022-12-18T19:43:49.795Z,-4.30
2022-12-18T19:46:21.140Z,-4.50
2022-12-18T19:48:52.018Z,-5.20
2022-12-18T19:51:23.120Z,-4.90
2022-12-18T19:53:58.076Z,-2.10
2022-12-18T19:56:29.924Z,-4.20
2022-12-18T19:58:58.460Z,-2.10
2022-12-18T20:01:29.608Z,-4.70
2022-12-18T20:04:00.349Z,-4.10
2022-12-18T20:06:32.356Z,-4.20
2022-12-18T20:09:03.651Z,-4.80
2022-12-18T20:11:32.278Z,-2.20
2022-12-18T20:14:03.614Z,-5.00
2022-12-18T20:16:32.211Z,-3.40
2022-12-18T20:19:02.255Z,-4.40
2022-12-18T20:21:31.247Z,-5.10
2022-12-18T20:24:00.214Z,-4.40
2022-12-18T20:26:28.973Z,-4.40
2022-12-18T20:28:57.922Z,-4.60
2022-12-18T20:31:26.893Z,-5.00
2022-12-18T20:34:01.721Z,-4.30
2022-12-18T20:36:35.139Z,-5.30
2022-12-18T20:39:07.648Z,-2.30
2022-12-18T20:41:39.106Z,-2.60
2022-12-18T20:44:21.397Z,-4.20
2022-12-18T20:46:56.953Z,-4.90
2022-12-18T20:49:27.641Z,-3.30
2022-12-18T20:51:59.735Z,-4.10
2022-12-18T20:54:29.193Z,-4.10
2022-12-18T20:56:58.644Z,-4.70
2022-12-18T20:59:27.271Z,-4.30
2022-12-18T21:01:56.237Z,-4.00
2022-12-18T21:04:25.630Z,-4.10
2022-12-18T21:07:02.310Z,-4.90
2022-12-18T21:09:37.709Z,-3.10
2022-12-18T21:12:29.163Z,-4.90
2022-12-18T21:14:59.603Z,-4.80
2022-12-18T21:17:28.499Z,-3.90
2022-12-18T21:19:58.151Z,-3.40
2022-12-18T21:22:28.470Z,-3.90
2022-12-18T21:24:57.437Z,-3.90
2022-12-18T21:27:25.960Z,-3.90
2022-12-18T21:29:54.471Z,-4.00
2022-12-18T21:32:23.982Z,-2.80
2022-12-18T21:34:54.576Z,-4.30
2022-12-18T21:37:23.097Z,-4.20
2022-12-18T21:39:53.327Z,-3.50
2022-12-18T21:42:53.877Z,-3.90
2022-12-18T21:45:22.361Z,-3.50
2022-12-18T21:47:50.879Z,-4.60
2022-12-18T21:50:19.785Z,-2.60
2022-12-18T21:52:48.248Z,-3.80
2022-12-18T21:55:18.635Z,-3.80
2022-12-18T22:00:19.135Z,-3.80
2022-12-18T22:03:17.684Z,-1.60
2022-12-18T22:05:38.275Z,-3.90
2022-12-18T22:08:07.876Z,-4.10
2022-12-18T22:10:38.837Z,-4.30
2022-12-18T22:13:10.079Z,-3.00
2022-12-18T22:15:38.633Z,-3.60
2022-12-18T22:18:07.222Z,-3.70
2022-12-18T22:20:35.726Z,-3.20
2022-12-18T22:23:05.978Z,-3.80
2022-12-18T22:25:38.931Z,-4.20
2022-12-18T22:28:27.261Z,-3.80
2022-12-18T22:30:59.488Z,-3.70
2022-12-18T22:33:28.944Z,-3.80
2022-12-18T22:35:57.467Z,-4.40
2022-12-18T22:40:56.020Z,-3.60
2022-12-18T22:43:26.063Z,-3.50
2022-12-18T22:45:54.854Z,-3.50
2022-12-18T22:48:23.402Z,-4.50
2022-12-18T22:50:53.456Z,-4.30
2022-12-18T22:53:27.657Z,-3.70
2022-12-18T22:56:02.397Z,-3.80
2022-12-18T22:58:32.272Z,-3.80
2022-12-18T23:01:01.220Z,-4.00
2022-12-18T23:03:29.916Z,-3.40
2022-12-18T23:06:08.103Z,-4.00
2022-12-18T23:08:36.879Z,-3.90
2022-12-18T23:11:06.616Z,-4.10
2022-12-18T23:13:37.387Z,-2.10
2022-12-18T23:16:08.171Z,-3.30
2022-12-18T23:18:37.343Z,-2.30
2022-12-18T23:21:07.464Z,-4.00
2022-12-18T23:23:38.368Z,-0.90
2022-12-18T23:26:10.844Z,-2.80
2022-12-18T23:28:41.754Z,-3.20
2022-12-18T23:31:17.046Z,-0.90
2022-12-18T23:33:47.204Z,-3.40
2022-12-18T23:36:17.082Z,-2.80
2022-12-18T23:38:50.551Z,-3.60
2022-12-18T23:41:21.982Z,-3.30
2022-12-18T23:43:52.660Z,-2.70
2022-12-18T23:46:24.284Z,-3.60
2022-12-18T23:48:53.979Z,-3.20
2022-12-18T23:51:25.933Z,-2.90
2022-12-18T23:53:55.343Z,-2.70
2022-12-18T23:56:24.600Z,-3.00
2022-12-18T23:58:54.547Z,-3.50
